sensor_id;sensor_type;location;lat;lon;timestamp;P1;durP1;ratioP1;P2;durP2;ratioP2
58083;SDS011;43882;51.550;11.858;2024-01-30T00:01:45;20.20;;;7.60;;
58083;SDS011;43882;51.550;11.858;2024-01-30T00:04:11;19.05;;;7.55;;
58083;SDS011;43882;51.550;11.858;2024-01-30T00:06:37;19.63;;;7.28;;
58083;SDS011;43882;51.550;11.858;2024-01-30T00:09:03;20.88;;;7.20;;
58083;SDS011;43882;51.550;11.858;2024-01-30T00:11:30;20.42;;;8.05;;
58083;SDS011;43882;51.550;11.858;2024-01-30T00:13:56;20.15;;;7.65;;
58083;SDS011;43882;51.550;11.858;2024-01-30T00:16:23;20.33;;;7.70;;
58083;SDS011;43882;51.550;11.858;2024-01-30T00:18:50;19.23;;;7.43;;
58083;SDS011;43882;51.550;11.858;2024-01-30T00:21:16;19.52;;;7.82;;
58083;SDS011;43882;51.550;11.858;2024-01-30T00:23:43;18.92;;;7.80;;
58083;SDS011;43882;51.550;11.858;2024-01-30T00:26:09;20.70;;;7.93;;
58083;SDS011;43882;51.550;11.858;2024-01-30T00:28:36;21.17;;;8.02;;
58083;SDS011;43882;51.550;11.858;2024-01-30T00:31:03;18.92;;;7.95;;
58083;SDS011;43882;51.550;11.858;2024-01-30T00:33:29;21.85;;;8.93;;
58083;SDS011;43882;51.550;11.858;2024-01-30T00:35:55;21.42;;;7.82;;
58083;SDS011;43882;51.550;11.858;2024-01-30T00:38:21;18.08;;;7.07;;
58083;SDS011;43882;51.550;11.858;2024-01-30T00:40:48;22.65;;;8.20;;
58083;SDS011;43882;51.550;11.858;2024-01-30T00:43:14;19.38;;;7.45;;
58083;SDS011;43882;51.550;11.858;2024-01-30T00:45:41;19.23;;;7.93;;
58083;SDS011;43882;51.550;11.858;2024-01-30T00:48:10;20.85;;;7.72;;
58083;SDS011;43882;51.550;11.858;2024-01-30T00:50:36;21.48;;;7.53;;
58083;SDS011;43882;51.550;11.858;2024-01-30T00:53:02;20.65;;;7.60;;
58083;SDS011;43882;51.550;11.858;2024-01-30T00:55:28;19.35;;;7.88;;
58083;SDS011;43882;51.550;11.858;2024-01-30T00:57:54;19.13;;;7.28;;
58083;SDS011;43882;51.550;11.858;2024-01-30T01:00:21;21.15;;;7.90;;
58083;SDS011;43882;51.550;11.858;2024-01-30T01:02:48;20.42;;;7.65;;
58083;SDS011;43882;51.550;11.858;2024-01-30T01:05:14;20.83;;;7.68;;
58083;SDS011;43882;51.550;11.858;2024-01-30T01:07:40;19.38;;;7.22;;
58083;SDS011;43882;51.550;11.858;2024-01-30T01:10:07;20.48;;;8.40;;
58083;SDS011;43882;51.550;11.858;2024-01-30T01:12:33;17.98;;;6.65;;
58083;SDS011;43882;51.550;11.858;2024-01-30T01:14:59;19.92;;;7.25;;
58083;SDS011;43882;51.550;11.858;2024-01-30T01:17:27;18.48;;;7.18;;
58083;SDS011;43882;51.550;11.858;2024-01-30T01:19:53;20.88;;;7.55;;
58083;SDS011;43882;51.550;11.858;2024-01-30T01:22:19;21.55;;;7.28;;
58083;SDS011;43882;51.550;11.858;2024-01-30T01:24:45;18.90;;;7.32;;
58083;SDS011;43882;51.550;11.858;2024-01-30T01:27:11;19.50;;;7.60;;
58083;SDS011;43882;51.550;11.858;2024-01-30T01:29:37;21.20;;;7.45;;
58083;SDS011;43882;51.550;11.858;2024-01-30T01:32:03;21.05;;;8.25;;
58083;SDS011;43882;51.550;11.858;2024-01-30T01:34:30;17.60;;;7.15;;
58083;SDS011;43882;51.550;11.858;2024-01-30T01:36:56;19.73;;;7.68;;
58083;SDS011;43882;51.550;11.858;2024-01-30T01:39:22;20.30;;;8.23;;
58083;SDS011;43882;51.550;11.858;2024-01-30T01:41:48;19.10;;;7.55;;
58083;SDS011;43882;51.550;11.858;2024-01-30T01:44:15;18.77;;;6.97;;
58083;SDS011;43882;51.550;11.858;2024-01-30T01:46:42;20.23;;;7.57;;
58083;SDS011;43882;51.550;11.858;2024-01-30T01:49:08;20.02;;;7.70;;
58083;SDS011;43882;51.550;11.858;2024-01-30T01:51:35;19.38;;;8.30;;
58083;SDS011;43882;51.550;11.858;2024-01-30T01:54:03;20.08;;;7.78;;
58083;SDS011;43882;51.550;11.858;2024-01-30T01:56:33;18.58;;;7.93;;
58083;SDS011;43882;51.550;11.858;2024-01-30T01:59:02;21.65;;;8.50;;
58083;SDS011;43882;51.550;11.858;2024-01-30T02:01:32;19.95;;;7.88;;
58083;SDS011;43882;51.550;11.858;2024-01-30T02:03:59;20.98;;;7.72;;
58083;SDS011;43882;51.550;11.858;2024-01-30T02:06:25;21.25;;;7.75;;
58083;SDS011;43882;51.550;11.858;2024-01-30T02:08:52;19.70;;;7.85;;
58083;SDS011;43882;51.550;11.858;2024-01-30T02:11:19;22.52;;;8.57;;
58083;SDS011;43882;51.550;11.858;2024-01-30T02:13:46;20.15;;;7.80;;
58083;SDS011;43882;51.550;11.858;2024-01-30T02:16:12;19.85;;;7.90;;
58083;SDS011;43882;51.550;11.858;2024-01-30T02:18:38;19.58;;;7.97;;
58083;SDS011;43882;51.550;11.858;2024-01-30T02:21:10;19.20;;;8.15;;
58083;SDS011;43882;51.550;11.858;2024-01-30T02:23:36;20.50;;;8.65;;
58083;SDS011;43882;51.550;11.858;2024-01-30T02:26:03;18.63;;;7.82;;
58083;SDS011;43882;51.550;11.858;2024-01-30T02:28:30;21.88;;;8.90;;
58083;SDS011;43882;51.550;11.858;2024-01-30T02:30:56;20.60;;;8.27;;
58083;SDS011;43882;51.550;11.858;2024-01-30T02:33:22;19.67;;;7.55;;
58083;SDS011;43882;51.550;11.858;2024-01-30T02:35:48;19.10;;;7.70;;
58083;SDS011;43882;51.550;11.858;2024-01-30T02:38:17;18.95;;;7.28;;
58083;SDS011;43882;51.550;11.858;2024-01-30T02:40:43;20.08;;;7.40;;
58083;SDS011;43882;51.550;11.858;2024-01-30T02:43:09;20.17;;;7.68;;
58083;SDS011;43882;51.550;11.858;2024-01-30T02:45:35;19.70;;;7.25;;
58083;SDS011;43882;51.550;11.858;2024-01-30T02:48:01;19.55;;;7.45;;
58083;SDS011;43882;51.550;11.858;2024-01-30T02:50:27;19.10;;;7.43;;
58083;SDS011;43882;51.550;11.858;2024-01-30T02:52:54;19.73;;;7.60;;
58083;SDS011;43882;51.550;11.858;2024-01-30T02:55:20;19.73;;;7.68;;
58083;SDS011;43882;51.550;11.858;2024-01-30T02:57:46;19.35;;;7.90;;
58083;SDS011;43882;51.550;11.858;2024-01-30T03:00:12;19.30;;;7.50;;
58083;SDS011;43882;51.550;11.858;2024-01-30T03:02:39;19.45;;;8.05;;
58083;SDS011;43882;51.550;11.858;2024-01-30T03:05:05;19.10;;;7.25;;
58083;SDS011;43882;51.550;11.858;2024-01-30T03:07:32;20.05;;;8.18;;
58083;SDS011;43882;51.550;11.858;2024-01-30T03:09:59;20.50;;;8.02;;
58083;SDS011;43882;51.550;11.858;2024-01-30T03:12:25;20.65;;;7.78;;
58083;SDS011;43882;51.550;11.858;2024-01-30T03:14:51;18.80;;;7.82;;
58083;SDS011;43882;51.550;11.858;2024-01-30T03:17:17;20.30;;;8.80;;
58083;SDS011;43882;51.550;11.858;2024-01-30T03:19:43;21.95;;;8.48;;
58083;SDS011;43882;51.550;11.858;2024-01-30T03:22:09;20.33;;;8.32;;
58083;SDS011;43882;51.550;11.858;2024-01-30T03:24:35;20.63;;;7.93;;
58083;SDS011;43882;51.550;11.858;2024-01-30T03:27:01;19.58;;;7.72;;
58083;SDS011;43882;51.550;11.858;2024-01-30T03:29:28;22.15;;;8.75;;
58083;SDS011;43882;51.550;11.858;2024-01-30T03:31:54;22.25;;;8.23;;
58083;SDS011;43882;51.550;11.858;2024-01-30T03:34:20;21.17;;;8.75;;
58083;SDS011;43882;51.550;11.858;2024-01-30T03:36:46;20.85;;;8.07;;
58083;SDS011;43882;51.550;11.858;2024-01-30T03:39:12;22.17;;;8.38;;
58083;SDS011;43882;51.550;11.858;2024-01-30T03:41:38;21.30;;;8.68;;
58083;SDS011;43882;51.550;11.858;2024-01-30T03:44:08;21.20;;;8.73;;
58083;SDS011;43882;51.550;11.858;2024-01-30T03:46:34;22.25;;;8.07;;
58083;SDS011;43882;51.550;11.858;2024-01-30T03:49:00;22.50;;;8.30;;
58083;SDS011;43882;51.550;11.858;2024-01-30T03:51:26;21.92;;;8.52;;
58083;SDS011;43882;51.550;11.858;2024-01-30T03:53:52;19.33;;;7.97;;
58083;SDS011;43882;51.550;11.858;2024-01-30T03:56:18;20.67;;;8.30;;
58083;SDS011;43882;51.550;11.858;2024-01-30T03:58:44;19.52;;;8.15;;
58083;SDS011;43882;51.550;11.858;2024-01-30T04:01:14;23.65;;;8.32;;
58083;SDS011;43882;51.550;11.858;2024-01-30T04:03:40;20.52;;;7.70;;
58083;SDS011;43882;51.550;11.858;2024-01-30T04:06:07;20.83;;;7.93;;
58083;SDS011;43882;51.550;11.858;2024-01-30T04:08:33;19.38;;;8.30;;
58083;SDS011;43882;51.550;11.858;2024-01-30T04:11:03;20.98;;;8.48;;
58083;SDS011;43882;51.550;11.858;2024-01-30T04:13:30;21.15;;;7.93;;
58083;SDS011;43882;51.550;11.858;2024-01-30T04:15:58;20.98;;;8.30;;
58083;SDS011;43882;51.550;11.858;2024-01-30T04:18:26;20.40;;;8.32;;
58083;SDS011;43882;51.550;11.858;2024-01-30T04:20:52;19.40;;;7.55;;
58083;SDS011;43882;51.550;11.858;2024-01-30T04:23:18;21.70;;;8.32;;
58083;SDS011;43882;51.550;11.858;2024-01-30T04:25:44;19.20;;;7.15;;
58083;SDS011;43882;51.550;11.858;2024-01-30T04:28:10;20.90;;;8.48;;
58083;SDS011;43882;51.550;11.858;2024-01-30T04:30:37;21.40;;;8.38;;
58083;SDS011;43882;51.550;11.858;2024-01-30T04:33:03;18.58;;;7.40;;
58083;SDS011;43882;51.550;11.858;2024-01-30T04:35:29;21.55;;;8.45;;
58083;SDS011;43882;51.550;11.858;2024-01-30T04:37:56;21.08;;;8.45;;
58083;SDS011;43882;51.550;11.858;2024-01-30T04:40:22;20.42;;;8.05;;
58083;SDS011;43882;51.550;11.858;2024-01-30T04:42:48;20.23;;;8.07;;
58083;SDS011;43882;51.550;11.858;2024-01-30T04:45:14;18.73;;;8.25;;
58083;SDS011;43882;51.550;11.858;2024-01-30T04:47:40;21.33;;;8.32;;
58083;SDS011;43882;51.550;11.858;2024-01-30T04:50:06;22.48;;;8.85;;
58083;SDS011;43882;51.550;11.858;2024-01-30T04:52:33;21.98;;;8.32;;
58083;SDS011;43882;51.550;11.858;2024-01-30T04:55:00;19.85;;;8.13;;
58083;SDS011;43882;51.550;11.858;2024-01-30T04:57:26;22.38;;;8.60;;
58083;SDS011;43882;51.550;11.858;2024-01-30T04:59:52;21.38;;;8.60;;
58083;SDS011;43882;51.550;11.858;2024-01-30T05:02:18;20.10;;;8.75;;
58083;SDS011;43882;51.550;11.858;2024-01-30T05:04:44;21.20;;;8.65;;
58083;SDS011;43882;51.550;11.858;2024-01-30T05:07:10;21.30;;;8.75;;
58083;SDS011;43882;51.550;11.858;2024-01-30T05:09:36;21.25;;;8.88;;
58083;SDS011;43882;51.550;11.858;2024-01-30T05:12:03;21.25;;;8.52;;
58083;SDS011;43882;51.550;11.858;2024-01-30T05:14:29;20.42;;;8.10;;
58083;SDS011;43882;51.550;11.858;2024-01-30T05:16:55;22.27;;;8.45;;
58083;SDS011;43882;51.550;11.858;2024-01-30T05:19:21;21.92;;;8.45;;
58083;SDS011;43882;51.550;11.858;2024-01-30T05:21:48;21.58;;;8.82;;
58083;SDS011;43882;51.550;11.858;2024-01-30T05:24:14;21.80;;;9.20;;
58083;SDS011;43882;51.550;11.858;2024-01-30T05:26:40;22.92;;;9.25;;
58083;SDS011;43882;51.550;11.858;2024-01-30T05:29:06;19.88;;;8.70;;
58083;SDS011;43882;51.550;11.858;2024-01-30T05:31:33;21.75;;;8.80;;
58083;SDS011;43882;51.550;11.858;2024-01-30T05:33:59;20.50;;;8.77;;
58083;SDS011;43882;51.550;11.858;2024-01-30T05:36:25;22.35;;;9.35;;
58083;SDS011;43882;51.550;11.858;2024-01-30T05:38:51;22.05;;;9.40;;
58083;SDS011;43882;51.550;11.858;2024-01-30T05:41:17;23.27;;;10.60;;
58083;SDS011;43882;51.550;11.858;2024-01-30T05:43:44;20.80;;;9.40;;
58083;SDS011;43882;51.550;11.858;2024-01-30T05:46:10;23.27;;;9.43;;
58083;SDS011;43882;51.550;11.858;2024-01-30T05:48:36;23.98;;;9.43;;
58083;SDS011;43882;51.550;11.858;2024-01-30T05:51:02;23.90;;;9.25;;
58083;SDS011;43882;51.550;11.858;2024-01-30T05:53:29;23.80;;;9.75;;
58083;SDS011;43882;51.550;11.858;2024-01-30T05:55:55;25.42;;;11.38;;
58083;SDS011;43882;51.550;11.858;2024-01-30T05:58:21;24.92;;;11.73;;
58083;SDS011;43882;51.550;11.858;2024-01-30T06:00:47;27.38;;;11.32;;
58083;SDS011;43882;51.550;11.858;2024-01-30T06:03:13;23.25;;;10.48;;
58083;SDS011;43882;51.550;11.858;2024-01-30T06:05:39;23.60;;;10.20;;
58083;SDS011;43882;51.550;11.858;2024-01-30T06:08:05;24.92;;;10.18;;
58083;SDS011;43882;51.550;11.858;2024-01-30T06:10:31;22.58;;;9.57;;
58083;SDS011;43882;51.550;11.858;2024-01-30T06:12:57;23.25;;;10.15;;
58083;SDS011;43882;51.550;11.858;2024-01-30T06:15:24;23.80;;;9.90;;
58083;SDS011;43882;51.550;11.858;2024-01-30T06:17:50;24.75;;;9.85;;
58083;SDS011;43882;51.550;11.858;2024-01-30T06:20:17;23.92;;;9.93;;
58083;SDS011;43882;51.550;11.858;2024-01-30T06:22:43;21.60;;;9.57;;
58083;SDS011;43882;51.550;11.858;2024-01-30T06:25:09;22.17;;;9.43;;
58083;SDS011;43882;51.550;11.858;2024-01-30T06:27:37;23.45;;;9.85;;
58083;SDS011;43882;51.550;11.858;2024-01-30T06:30:03;23.23;;;9.52;;
58083;SDS011;43882;51.550;11.858;2024-01-30T06:32:30;22.02;;;9.25;;
58083;SDS011;43882;51.550;11.858;2024-01-30T06:34:59;22.27;;;9.38;;
58083;SDS011;43882;51.550;11.858;2024-01-30T06:37:25;21.13;;;9.20;;
58083;SDS011;43882;51.550;11.858;2024-01-30T06:39:51;23.15;;;9.68;;
58083;SDS011;43882;51.550;11.858;2024-01-30T06:42:18;21.17;;;9.27;;
58083;SDS011;43882;51.550;11.858;2024-01-30T06:44:44;23.77;;;9.77;;
58083;SDS011;43882;51.550;11.858;2024-01-30T06:47:10;22.60;;;9.55;;
58083;SDS011;43882;51.550;11.858;2024-01-30T06:49:36;24.23;;;9.32;;
58083;SDS011;43882;51.550;11.858;2024-01-30T06:52:06;22.38;;;9.65;;
58083;SDS011;43882;51.550;11.858;2024-01-30T06:54:33;22.20;;;9.27;;
58083;SDS011;43882;51.550;11.858;2024-01-30T06:56:59;22.00;;;10.32;;
58083;SDS011;43882;51.550;11.858;2024-01-30T06:59:25;23.55;;;9.60;;
58083;SDS011;43882;51.550;11.858;2024-01-30T07:01:51;21.02;;;8.82;;
58083;SDS011;43882;51.550;11.858;2024-01-30T07:04:17;21.30;;;8.45;;
58083;SDS011;43882;51.550;11.858;2024-01-30T07:06:43;20.52;;;8.90;;
58083;SDS011;43882;51.550;11.858;2024-01-30T07:09:10;23.38;;;9.63;;
58083;SDS011;43882;51.550;11.858;2024-01-30T07:11:37;22.30;;;9.60;;
58083;SDS011;43882;51.550;11.858;2024-01-30T07:14:03;21.75;;;8.88;;
58083;SDS011;43882;51.550;11.858;2024-01-30T07:16:29;20.73;;;8.35;;
58083;SDS011;43882;51.550;11.858;2024-01-30T07:18:55;21.00;;;8.45;;
58083;SDS011;43882;51.550;11.858;2024-01-30T07:21:22;19.65;;;8.63;;
58083;SDS011;43882;51.550;11.858;2024-01-30T07:23:53;22.55;;;8.52;;
58083;SDS011;43882;51.550;11.858;2024-01-30T07:26:19;23.95;;;8.98;;
58083;SDS011;43882;51.550;11.858;2024-01-30T07:28:45;22.35;;;8.60;;
58083;SDS011;43882;51.550;11.858;2024-01-30T07:31:12;19.45;;;8.45;;
58083;SDS011;43882;51.550;11.858;2024-01-30T07:33:38;22.38;;;7.80;;
58083;SDS011;43882;51.550;11.858;2024-01-30T07:36:04;18.92;;;8.05;;
58083;SDS011;43882;51.550;11.858;2024-01-30T07:38:33;18.63;;;7.70;;
58083;SDS011;43882;51.550;11.858;2024-01-30T07:40:59;20.88;;;8.55;;
58083;SDS011;43882;51.550;11.858;2024-01-30T07:43:25;20.95;;;8.77;;
58083;SDS011;43882;51.550;11.858;2024-01-30T07:45:51;20.65;;;8.70;;
58083;SDS011;43882;51.550;11.858;2024-01-30T07:48:17;23.30;;;8.55;;
58083;SDS011;43882;51.550;11.858;2024-01-30T07:50:43;22.27;;;9.35;;
58083;SDS011;43882;51.550;11.858;2024-01-30T07:53:09;20.95;;;8.25;;
58083;SDS011;43882;51.550;11.858;2024-01-30T07:55:36;20.58;;;7.63;;
58083;SDS011;43882;51.550;11.858;2024-01-30T07:58:02;21.13;;;8.60;;
58083;SDS011;43882;51.550;11.858;2024-01-30T08:00:29;21.40;;;8.02;;
58083;SDS011;43882;51.550;11.858;2024-01-30T08:02:55;20.58;;;7.45;;
58083;SDS011;43882;51.550;11.858;2024-01-30T08:05:22;19.58;;;7.40;;
58083;SDS011;43882;51.550;11.858;2024-01-30T08:07:48;19.63;;;7.65;;
58083;SDS011;43882;51.550;11.858;2024-01-30T08:10:14;20.00;;;7.63;;
58083;SDS011;43882;51.550;11.858;2024-01-30T08:12:43;19.58;;;7.68;;
58083;SDS011;43882;51.550;11.858;2024-01-30T08:15:09;20.00;;;7.55;;
58083;SDS011;43882;51.550;11.858;2024-01-30T08:17:37;19.25;;;7.78;;
58083;SDS011;43882;51.550;11.858;2024-01-30T08:20:03;20.88;;;8.10;;
58083;SDS011;43882;51.550;11.858;2024-01-30T08:22:30;18.90;;;7.50;;
58083;SDS011;43882;51.550;11.858;2024-01-30T08:24:56;22.33;;;7.70;;
58083;SDS011;43882;51.550;11.858;2024-01-30T08:27:22;19.23;;;7.68;;
58083;SDS011;43882;51.550;11.858;2024-01-30T08:29:48;20.50;;;7.80;;
58083;SDS011;43882;51.550;11.858;2024-01-30T08:32:16;20.02;;;7.40;;
58083;SDS011;43882;51.550;11.858;2024-01-30T08:34:42;18.60;;;7.50;;
58083;SDS011;43882;51.550;11.858;2024-01-30T08:37:08;19.55;;;7.22;;
58083;SDS011;43882;51.550;11.858;2024-01-30T08:39:34;19.38;;;7.82;;
58083;SDS011;43882;51.550;11.858;2024-01-30T08:42:00;18.75;;;7.10;;
58083;SDS011;43882;51.550;11.858;2024-01-30T08:44:26;18.98;;;7.13;;
58083;SDS011;43882;51.550;11.858;2024-01-30T08:46:52;19.35;;;7.32;;
58083;SDS011;43882;51.550;11.858;2024-01-30T08:49:19;21.20;;;7.70;;
58083;SDS011;43882;51.550;11.858;2024-01-30T08:51:46;21.90;;;7.43;;
58083;SDS011;43882;51.550;11.858;2024-01-30T08:54:12;17.67;;;6.75;;
58083;SDS011;43882;51.550;11.858;2024-01-30T08:56:38;17.90;;;6.40;;
58083;SDS011;43882;51.550;11.858;2024-01-30T08:59:04;19.25;;;6.78;;
58083;SDS011;43882;51.550;11.858;2024-01-30T09:01:30;18.83;;;7.50;;
58083;SDS011;43882;51.550;11.858;2024-01-30T09:03:56;19.10;;;7.35;;
58083;SDS011;43882;51.550;11.858;2024-01-30T09:06:22;20.95;;;7.05;;
58083;SDS011;43882;51.550;11.858;2024-01-30T09:08:53;18.42;;;7.45;;
58083;SDS011;43882;51.550;11.858;2024-01-30T09:11:19;19.67;;;7.13;;
58083;SDS011;43882;51.550;11.858;2024-01-30T09:13:45;18.85;;;7.07;;
58083;SDS011;43882;51.550;11.858;2024-01-30T09:16:11;18.45;;;7.00;;
58083;SDS011;43882;51.550;11.858;2024-01-30T09:18:37;18.83;;;6.70;;
58083;SDS011;43882;51.550;11.858;2024-01-30T09:21:04;19.20;;;7.15;;
58083;SDS011;43882;51.550;11.858;2024-01-30T09:23:30;19.67;;;6.68;;
58083;SDS011;43882;51.550;11.858;2024-01-30T09:25:56;17.27;;;6.30;;
58083;SDS011;43882;51.550;11.858;2024-01-30T09:28:22;18.85;;;6.60;;
58083;SDS011;43882;51.550;11.858;2024-01-30T09:30:48;19.23;;;7.38;;
58083;SDS011;43882;51.550;11.858;2024-01-30T09:33:14;17.83;;;6.90;;
58083;SDS011;43882;51.550;11.858;2024-01-30T09:35:40;18.95;;;6.93;;
58083;SDS011;43882;51.550;11.858;2024-01-30T09:38:06;17.92;;;6.30;;
58083;SDS011;43882;51.550;11.858;2024-01-30T09:40:32;19.40;;;6.82;;
58083;SDS011;43882;51.550;11.858;2024-01-30T09:42:59;17.75;;;6.55;;
58083;SDS011;43882;51.550;11.858;2024-01-30T09:45:25;18.52;;;6.72;;
58083;SDS011;43882;51.550;11.858;2024-01-30T09:47:52;18.02;;;6.80;;
58083;SDS011;43882;51.550;11.858;2024-01-30T09:50:18;19.05;;;6.57;;
58083;SDS011;43882;51.550;11.858;2024-01-30T09:52:45;18.73;;;6.50;;
58083;SDS011;43882;51.550;11.858;2024-01-30T09:55:12;17.02;;;6.30;;
58083;SDS011;43882;51.550;11.858;2024-01-30T09:57:38;19.65;;;7.55;;
58083;SDS011;43882;51.550;11.858;2024-01-30T10:00:05;22.27;;;7.18;;
58083;SDS011;43882;51.550;11.858;2024-01-30T10:02:35;18.75;;;6.55;;
58083;SDS011;43882;51.550;11.858;2024-01-30T10:05:01;18.75;;;6.40;;
58083;SDS011;43882;51.550;11.858;2024-01-30T10:07:27;17.67;;;6.88;;
58083;SDS011;43882;51.550;11.858;2024-01-30T10:09:55;18.27;;;6.85;;
58083;SDS011;43882;51.550;11.858;2024-01-30T10:12:21;17.33;;;6.50;;
58083;SDS011;43882;51.550;11.858;2024-01-30T10:14:48;20.35;;;6.13;;
58083;SDS011;43882;51.550;11.858;2024-01-30T10:17:14;18.35;;;6.72;;
58083;SDS011;43882;51.550;11.858;2024-01-30T10:19:40;16.95;;;6.43;;
58083;SDS011;43882;51.550;11.858;2024-01-30T10:22:06;18.60;;;7.05;;
58083;SDS011;43882;51.550;11.858;2024-01-30T10:24:34;20.77;;;7.15;;
58083;SDS011;43882;51.550;11.858;2024-01-30T10:27:00;18.50;;;6.95;;
58083;SDS011;43882;51.550;11.858;2024-01-30T10:29:27;19.13;;;6.68;;
58083;SDS011;43882;51.550;11.858;2024-01-30T10:32:03;20.48;;;6.93;;
58083;SDS011;43882;51.550;11.858;2024-01-30T10:34:31;19.73;;;6.78;;
58083;SDS011;43882;51.550;11.858;2024-01-30T10:37:07;19.45;;;6.50;;
58083;SDS011;43882;51.550;11.858;2024-01-30T10:39:43;19.55;;;6.57;;
58083;SDS011;43882;51.550;11.858;2024-01-30T10:42:11;18.17;;;7.00;;
58083;SDS011;43882;51.550;11.858;2024-01-30T10:44:44;17.92;;;6.40;;
58083;SDS011;43882;51.550;11.858;2024-01-30T10:47:18;17.63;;;6.55;;
58083;SDS011;43882;51.550;11.858;2024-01-30T10:49:50;18.95;;;6.72;;
58083;SDS011;43882;51.550;11.858;2024-01-30T10:52:17;17.85;;;6.80;;
58083;SDS011;43882;51.550;11.858;2024-01-30T10:54:44;17.50;;;6.68;;
58083;SDS011;43882;51.550;11.858;2024-01-30T10:57:10;19.27;;;6.65;;
58083;SDS011;43882;51.550;11.858;2024-01-30T10:59:37;18.00;;;7.07;;
58083;SDS011;43882;51.550;11.858;2024-01-30T11:02:03;18.02;;;7.00;;
58083;SDS011;43882;51.550;11.858;2024-01-30T11:04:40;17.83;;;6.55;;
58083;SDS011;43882;51.550;11.858;2024-01-30T11:07:26;18.23;;;7.03;;
58083;SDS011;43882;51.550;11.858;2024-01-30T11:09:59;19.02;;;7.88;;
58083;SDS011;43882;51.550;11.858;2024-01-30T11:12:29;18.25;;;7.25;;
58083;SDS011;43882;51.550;11.858;2024-01-30T11:15:01;18.52;;;7.05;;
58083;SDS011;43882;51.550;11.858;2024-01-30T11:17:44;20.58;;;7.07;;
58083;SDS011;43882;51.550;11.858;2024-01-30T11:22:44;18.77;;;7.20;;
58083;SDS011;43882;51.550;11.858;2024-01-30T11:25:15;17.85;;;6.82;;
58083;SDS011;43882;51.550;11.858;2024-01-30T11:27:42;20.23;;;6.75;;
58083;SDS011;43882;51.550;11.858;2024-01-30T11:30:09;17.65;;;6.72;;
58083;SDS011;43882;51.550;11.858;2024-01-30T11:32:35;19.48;;;7.30;;
58083;SDS011;43882;51.550;11.858;2024-01-30T11:35:03;18.50;;;6.95;;
58083;SDS011;43882;51.550;11.858;2024-01-30T11:37:34;17.75;;;6.63;;
58083;SDS011;43882;51.550;11.858;2024-01-30T11:40:03;18.95;;;7.05;;
58083;SDS011;43882;51.550;11.858;2024-01-30T11:42:30;17.33;;;6.93;;
58083;SDS011;43882;51.550;11.858;2024-01-30T11:44:59;18.38;;;7.45;;
58083;SDS011;43882;51.550;11.858;2024-01-30T11:47:27;21.52;;;8.18;;
58083;SDS011;43882;51.550;11.858;2024-01-30T11:49:54;18.83;;;7.53;;
58083;SDS011;43882;51.550;11.858;2024-01-30T11:52:20;17.73;;;7.18;;
58083;SDS011;43882;51.550;11.858;2024-01-30T11:54:46;18.52;;;7.45;;
58083;SDS011;43882;51.550;11.858;2024-01-30T11:57:12;17.85;;;6.90;;
58083;SDS011;43882;51.550;11.858;2024-01-30T11:59:38;19.33;;;7.38;;
58083;SDS011;43882;51.550;11.858;2024-01-30T12:02:04;19.25;;;7.88;;
58083;SDS011;43882;51.550;11.858;2024-01-30T12:04:30;19.85;;;9.23;;
58083;SDS011;43882;51.550;11.858;2024-01-30T12:06:56;18.13;;;7.43;;
58083;SDS011;43882;51.550;11.858;2024-01-30T12:09:22;20.02;;;9.13;;
58083;SDS011;43882;51.550;11.858;2024-01-30T12:11:49;20.08;;;8.05;;
58083;SDS011;43882;51.550;11.858;2024-01-30T12:14:15;18.20;;;7.13;;
58083;SDS011;43882;51.550;11.858;2024-01-30T12:16:42;19.65;;;7.75;;
58083;SDS011;43882;51.550;11.858;2024-01-30T12:19:08;18.63;;;7.25;;
58083;SDS011;43882;51.550;11.858;2024-01-30T12:21:34;19.13;;;7.30;;
58083;SDS011;43882;51.550;11.858;2024-01-30T12:24:01;18.15;;;6.97;;
58083;SDS011;43882;51.550;11.858;2024-01-30T12:26:27;18.08;;;6.63;;
58083;SDS011;43882;51.550;11.858;2024-01-30T12:28:56;19.63;;;7.30;;
58083;SDS011;43882;51.550;11.858;2024-01-30T12:31:26;20.25;;;7.05;;
58083;SDS011;43882;51.550;11.858;2024-01-30T12:33:52;16.85;;;7.00;;
58083;SDS011;43882;51.550;11.858;2024-01-30T12:36:19;21.73;;;7.78;;
58083;SDS011;43882;51.550;11.858;2024-01-30T12:38:46;19.80;;;7.18;;
58083;SDS011;43882;51.550;11.858;2024-01-30T12:41:12;17.88;;;7.43;;
58083;SDS011;43882;51.550;11.858;2024-01-30T12:43:38;18.15;;;7.50;;
58083;SDS011;43882;51.550;11.858;2024-01-30T12:46:04;17.80;;;6.70;;
58083;SDS011;43882;51.550;11.858;2024-01-30T12:48:31;17.13;;;6.47;;
58083;SDS011;43882;51.550;11.858;2024-01-30T12:50:57;18.80;;;6.90;;
58083;SDS011;43882;51.550;11.858;2024-01-30T12:53:23;18.00;;;7.00;;
58083;SDS011;43882;51.550;11.858;2024-01-30T12:55:49;17.85;;;6.50;;
58083;SDS011;43882;51.550;11.858;2024-01-30T12:58:15;17.17;;;6.88;;
58083;SDS011;43882;51.550;11.858;2024-01-30T13:00:42;18.05;;;6.82;;
58083;SDS011;43882;51.550;11.858;2024-01-30T13:03:08;17.80;;;6.60;;
58083;SDS011;43882;51.550;11.858;2024-01-30T13:05:35;17.90;;;6.40;;
58083;SDS011;43882;51.550;11.858;2024-01-30T13:08:01;18.02;;;6.70;;
58083;SDS011;43882;51.550;11.858;2024-01-30T13:10:28;18.02;;;6.53;;
58083;SDS011;43882;51.550;11.858;2024-01-30T13:12:54;18.70;;;6.45;;
58083;SDS011;43882;51.550;11.858;2024-01-30T13:15:20;17.48;;;6.45;;
58083;SDS011;43882;51.550;11.858;2024-01-30T13:17:47;17.58;;;6.30;;
58083;SDS011;43882;51.550;11.858;2024-01-30T13:20:14;17.60;;;6.32;;
58083;SDS011;43882;51.550;11.858;2024-01-30T13:22:48;16.35;;;6.07;;
58083;SDS011;43882;51.550;11.858;2024-01-30T13:25:15;17.08;;;6.72;;
58083;SDS011;43882;51.550;11.858;2024-01-30T13:27:41;17.73;;;6.20;;
58083;SDS011;43882;51.550;11.858;2024-01-30T13:30:07;16.98;;;6.25;;
58083;SDS011;43882;51.550;11.858;2024-01-30T13:32:34;17.35;;;6.25;;
58083;SDS011;43882;51.550;11.858;2024-01-30T13:35:01;17.23;;;6.32;;
58083;SDS011;43882;51.550;11.858;2024-01-30T13:37:27;18.65;;;6.65;;
58083;SDS011;43882;51.550;11.858;2024-01-30T13:39:53;16.25;;;6.53;;
58083;SDS011;43882;51.550;11.858;2024-01-30T13:42:19;17.50;;;6.55;;
58083;SDS011;43882;51.550;11.858;2024-01-30T13:44:45;17.40;;;6.50;;
58083;SDS011;43882;51.550;11.858;2024-01-30T13:47:11;16.92;;;6.15;;
58083;SDS011;43882;51.550;11.858;2024-01-30T13:49:37;17.60;;;6.43;;
58083;SDS011;43882;51.550;11.858;2024-01-30T13:52:03;18.10;;;6.28;;
58083;SDS011;43882;51.550;11.858;2024-01-30T13:54:30;18.80;;;7.35;;
58083;SDS011;43882;51.550;11.858;2024-01-30T13:56:56;16.50;;;6.35;;
58083;SDS011;43882;51.550;11.858;2024-01-30T13:59:22;18.35;;;6.30;;
58083;SDS011;43882;51.550;11.858;2024-01-30T14:01:50;17.73;;;6.32;;
58083;SDS011;43882;51.550;11.858;2024-01-30T14:04:19;17.83;;;6.40;;
58083;SDS011;43882;51.550;11.858;2024-01-30T14:06:46;17.73;;;6.68;;
58083;SDS011;43882;51.550;11.858;2024-01-30T14:09:12;18.20;;;6.43;;
58083;SDS011;43882;51.550;11.858;2024-01-30T14:11:40;16.90;;;6.70;;
58083;SDS011;43882;51.550;11.858;2024-01-30T14:14:06;17.25;;;6.55;;
58083;SDS011;43882;51.550;11.858;2024-01-30T14:16:32;17.80;;;6.80;;
58083;SDS011;43882;51.550;11.858;2024-01-30T14:18:58;20.17;;;7.22;;
58083;SDS011;43882;51.550;11.858;2024-01-30T14:21:25;17.75;;;6.82;;